sensor_id;sensor_type;location;lat;lon;timestamp;P1;durP1;ratioP1;P2;durP2;ratioP2
41952;SDS011;63613;28.200;112.870;2023-04-06T00:01:42;10.95;;;9.95;;
41952;SDS011;63613;28.200;112.870;2023-04-06T00:04:11;11.25;;;10.05;;
41952;SDS011;63613;28.200;112.870;2023-04-06T00:06:38;10.25;;;9.35;;
41952;SDS011;63613;28.200;112.870;2023-04-06T00:09:05;11.43;;;10.32;;
41952;SDS011;63613;28.200;112.870;2023-04-06T00:11:32;10.13;;;9.13;;
41952;SDS011;63613;28.200;112.870;2023-04-06T00:13:59;10.68;;;9.68;;
41952;SDS011;63613;28.200;112.870;2023-04-06T00:16:26;10.02;;;9.02;;
41952;SDS011;63613;28.200;112.870;2023-04-06T00:18:53;9.95;;;8.95;;
41952;SDS011;63613;28.200;112.870;2023-04-06T00:21:19;10.52;;;9.52;;
41952;SDS011;63613;28.200;112.870;2023-04-06T00:23:46;10.63;;;9.63;;
41952;SDS011;63613;28.200;112.870;2023-04-06T00:26:13;10.40;;;9.35;;
41952;SDS011;63613;28.200;112.870;2023-04-06T00:28:40;9.95;;;8.95;;
41952;SDS011;63613;28.200;112.870;2023-04-06T00:31:07;11.27;;;9.60;;
41952;SDS011;63613;28.200;112.870;2023-04-06T00:33:34;10.32;;;9.20;;
41952;SDS011;63613;28.200;112.870;2023-04-06T00:36:00;10.27;;;9.32;;
41952;SDS011;63613;28.200;112.870;2023-04-06T00:38:27;9.73;;;8.75;;
41952;SDS011;63613;28.200;112.870;2023-04-06T00:40:54;10.10;;;8.93;;
41952;SDS011;63613;28.200;112.870;2023-04-06T00:43:21;9.07;;;8.20;;
41952;SDS011;63613;28.200;112.870;2023-04-06T00:45:49;9.85;;;8.95;;
41952;SDS011;63613;28.200;112.870;2023-04-06T00:48:16;9.40;;;8.43;;
41952;SDS011;63613;28.200;112.870;2023-04-06T00:50:43;9.57;;;8.68;;
41952;SDS011;63613;28.200;112.870;2023-04-06T00:53:10;8.70;;;7.90;;
41952;SDS011;63613;28.200;112.870;2023-04-06T00:55:38;8.80;;;8.00;;
41952;SDS011;63613;28.200;112.870;2023-04-06T00:58:05;9.00;;;8.20;;
41952;SDS011;63613;28.200;112.870;2023-04-06T01:00:32;8.57;;;7.78;;
41952;SDS011;63613;28.200;112.870;2023-04-06T01:02:59;8.07;;;7.38;;
41952;SDS011;63613;28.200;112.870;2023-04-06T01:05:26;8.25;;;7.45;;
41952;SDS011;63613;28.200;112.870;2023-04-06T01:07:53;8.55;;;7.88;;
41952;SDS011;63613;28.200;112.870;2023-04-06T01:10:27;7.97;;;7.28;;
41952;SDS011;63613;28.200;112.870;2023-04-06T01:12:54;8.68;;;7.93;;
41952;SDS011;63613;28.200;112.870;2023-04-06T01:15:21;8.15;;;7.45;;
41952;SDS011;63613;28.200;112.870;2023-04-06T01:17:49;8.40;;;7.60;;
41952;SDS011;63613;28.200;112.870;2023-04-06T01:20:36;7.25;;;6.63;;
41952;SDS011;63613;28.200;112.870;2023-04-06T01:23:03;7.90;;;7.20;;
41952;SDS011;63613;28.200;112.870;2023-04-06T01:25:30;7.45;;;6.85;;
41952;SDS011;63613;28.200;112.870;2023-04-06T01:27:56;7.43;;;6.82;;
41952;SDS011;63613;28.200;112.870;2023-04-06T01:30:24;6.82;;;6.22;;
41952;SDS011;63613;28.200;112.870;2023-04-06T01:32:50;7.47;;;6.78;;
41952;SDS011;63613;28.200;112.870;2023-04-06T01:35:18;7.03;;;6.47;;
41952;SDS011;63613;28.200;112.870;2023-04-06T01:37:46;7.15;;;6.60;;
41952;SDS011;63613;28.200;112.870;2023-04-06T01:40:12;7.07;;;6.47;;
41952;SDS011;63613;28.200;112.870;2023-04-06T01:42:39;7.47;;;6.80;;
41952;SDS011;63613;28.200;112.870;2023-04-06T01:45:07;7.50;;;6.30;;
41952;SDS011;63613;28.200;112.870;2023-04-06T01:47:34;7.45;;;6.75;;
41952;SDS011;63613;28.200;112.870;2023-04-06T01:50:03;7.15;;;6.55;;
41952;SDS011;63613;28.200;112.870;2023-04-06T01:52:32;7.07;;;6.47;;
41952;SDS011;63613;28.200;112.870;2023-04-06T01:54:59;6.70;;;6.15;;
41952;SDS011;63613;28.200;112.870;2023-04-06T01:57:46;7.38;;;6.68;;
41952;SDS011;63613;28.200;112.870;2023-04-06T02:00:13;6.65;;;6.05;;
41952;SDS011;63613;28.200;112.870;2023-04-06T02:02:40;7.07;;;6.47;;
41952;SDS011;63613;28.200;112.870;2023-04-06T02:05:07;7.22;;;6.53;;
41952;SDS011;63613;28.200;112.870;2023-04-06T02:07:54;6.60;;;5.97;;
41952;SDS011;63613;28.200;112.870;2023-04-06T02:10:21;7.22;;;6.60;;
41952;SDS011;63613;28.200;112.870;2023-04-06T02:12:49;6.85;;;6.25;;
41952;SDS011;63613;28.200;112.870;2023-04-06T02:15:35;6.93;;;6.25;;
41952;SDS011;63613;28.200;112.870;2023-04-06T02:18:03;7.40;;;6.78;;
41952;SDS011;63613;28.200;112.870;2023-04-06T02:20:30;7.15;;;6.55;;
41952;SDS011;63613;28.200;112.870;2023-04-06T02:22:59;7.53;;;6.93;;
41952;SDS011;63613;28.200;112.870;2023-04-06T02:25:29;6.70;;;6.10;;
41952;SDS011;63613;28.200;112.870;2023-04-06T02:27:56;7.53;;;6.88;;
41952;SDS011;63613;28.200;112.870;2023-04-06T02:30:23;7.22;;;6.60;;
41952;SDS011;63613;28.200;112.870;2023-04-06T02:32:50;6.97;;;6.38;;
41952;SDS011;63613;28.200;112.870;2023-04-06T02:35:17;7.47;;;6.40;;
41952;SDS011;63613;28.200;112.870;2023-04-06T02:37:43;6.47;;;5.88;;
41952;SDS011;63613;28.200;112.870;2023-04-06T02:40:13;6.63;;;6.03;;
41952;SDS011;63613;28.200;112.870;2023-04-06T02:42:40;7.40;;;6.72;;
41952;SDS011;63613;28.200;112.870;2023-04-06T02:45:07;7.70;;;6.95;;
41952;SDS011;63613;28.200;112.870;2023-04-06T02:47:34;7.70;;;7.00;;
41952;SDS011;63613;28.200;112.870;2023-04-06T02:50:03;6.65;;;6.07;;
41952;SDS011;63613;28.200;112.870;2023-04-06T02:52:31;7.50;;;6.80;;
41952;SDS011;63613;28.200;112.870;2023-04-06T02:54:58;6.72;;;6.20;;
41952;SDS011;63613;28.200;112.870;2023-04-06T02:57:25;6.75;;;6.15;;
41952;SDS011;63613;28.200;112.870;2023-04-06T02:59:51;6.53;;;5.95;;
41952;SDS011;63613;28.200;112.870;2023-04-06T03:02:18;7.13;;;6.50;;
41952;SDS011;63613;28.200;112.870;2023-04-06T03:04:45;6.97;;;6.40;;
41952;SDS011;63613;28.200;112.870;2023-04-06T03:07:12;7.60;;;6.90;;
41952;SDS011;63613;28.200;112.870;2023-04-06T03:09:39;7.50;;;6.78;;
41952;SDS011;63613;28.200;112.870;2023-04-06T03:12:06;6.60;;;6.10;;
41952;SDS011;63613;28.200;112.870;2023-04-06T03:14:36;7.22;;;6.60;;
41952;SDS011;63613;28.200;112.870;2023-04-06T03:17:03;7.63;;;6.93;;
41952;SDS011;63613;28.200;112.870;2023-04-06T03:19:30;7.47;;;6.80;;
41952;SDS011;63613;28.200;112.870;2023-04-06T03:21:57;7.65;;;7.03;;
41952;SDS011;63613;28.200;112.870;2023-04-06T03:24:24;7.57;;;6.88;;
41952;SDS011;63613;28.200;112.870;2023-04-06T03:26:51;6.82;;;6.30;;
41952;SDS011;63613;28.200;112.870;2023-04-06T03:29:19;7.03;;;6.53;;
41952;SDS011;63613;28.200;112.870;2023-04-06T03:31:50;7.72;;;7.03;;
41952;SDS011;63613;28.200;112.870;2023-04-06T03:34:17;7.43;;;6.72;;
41952;SDS011;63613;28.200;112.870;2023-04-06T03:36:43;8.15;;;7.35;;
41952;SDS011;63613;28.200;112.870;2023-04-06T03:39:10;10.43;;;9.52;;
41952;SDS011;63613;28.200;112.870;2023-04-06T03:41:37;10.90;;;9.85;;
41952;SDS011;63613;28.200;112.870;2023-04-06T03:44:05;11.85;;;10.65;;
41952;SDS011;63613;28.200;112.870;2023-04-06T03:46:32;15.35;;;13.02;;
41952;SDS011;63613;28.200;112.870;2023-04-06T03:48:58;21.02;;;18.90;;
41952;SDS011;63613;28.200;112.870;2023-04-06T03:51:27;25.02;;;22.38;;
41952;SDS011;63613;28.200;112.870;2023-04-06T03:53:54;27.05;;;21.45;;
41952;SDS011;63613;28.200;112.870;2023-04-06T03:56:20;25.48;;;21.60;;
41952;SDS011;63613;28.200;112.870;2023-04-06T03:58:47;22.92;;;20.52;;
41952;SDS011;63613;28.200;112.870;2023-04-06T04:01:17;23.08;;;20.75;;
41952;SDS011;63613;28.200;112.870;2023-04-06T04:03:46;23.20;;;20.75;;
41952;SDS011;63613;28.200;112.870;2023-04-06T04:06:13;26.80;;;22.42;;
41952;SDS011;63613;28.200;112.870;2023-04-06T04:08:39;23.15;;;20.75;;
41952;SDS011;63613;28.200;112.870;2023-04-06T04:11:06;24.73;;;21.95;;
41952;SDS011;63613;28.200;112.870;2023-04-06T04:13:33;26.55;;;23.63;;
41952;SDS011;63613;28.200;112.870;2023-04-06T04:16:00;25.25;;;22.58;;
41952;SDS011;63613;28.200;112.870;2023-04-06T04:18:27;24.63;;;20.88;;
41952;SDS011;63613;28.200;112.870;2023-04-06T04:20:54;27.23;;;24.13;;
41952;SDS011;63613;28.200;112.870;2023-04-06T04:23:20;22.85;;;19.83;;
41952;SDS011;63613;28.200;112.870;2023-04-06T04:25:48;25.75;;;23.15;;
41952;SDS011;63613;28.200;112.870;2023-04-06T04:28:35;23.45;;;21.02;;
41952;SDS011;63613;28.200;112.870;2023-04-06T04:31:02;23.75;;;21.30;;
41952;SDS011;63613;28.200;112.870;2023-04-06T04:33:29;23.88;;;21.35;;
41952;SDS011;63613;28.200;112.870;2023-04-06T04:35:56;29.27;;;24.42;;
41952;SDS011;63613;28.200;112.870;2023-04-06T04:38:23;40.63;;;30.55;;
41952;SDS011;63613;28.200;112.870;2023-04-06T04:40:50;31.92;;;24.63;;
41952;SDS011;63613;28.200;112.870;2023-04-06T04:43:17;30.80;;;25.80;;
41952;SDS011;63613;28.200;112.870;2023-04-06T04:45:46;30.27;;;24.35;;
41952;SDS011;63613;28.200;112.870;2023-04-06T04:48:15;24.98;;;22.27;;
41952;SDS011;63613;28.200;112.870;2023-04-06T04:50:46;25.85;;;22.48;;
41952;SDS011;63613;28.200;112.870;2023-04-06T04:53:12;25.63;;;23.02;;
41952;SDS011;63613;28.200;112.870;2023-04-06T04:55:39;23.80;;;21.30;;
41952;SDS011;63613;28.200;112.870;2023-04-06T04:58:07;26.95;;;24.35;;
41952;SDS011;63613;28.200;112.870;2023-04-06T05:00:36;23.25;;;18.70;;
41952;SDS011;63613;28.200;112.870;2023-04-06T05:03:06;26.70;;;23.90;;
41952;SDS011;63613;28.200;112.870;2023-04-06T05:05:33;22.55;;;20.35;;
41952;SDS011;63613;28.200;112.870;2023-04-06T05:08:01;28.35;;;22.50;;
41952;SDS011;63613;28.200;112.870;2023-04-06T05:10:28;23.73;;;20.20;;
41952;SDS011;63613;28.200;112.870;2023-04-06T05:13:14;22.20;;;19.90;;
41952;SDS011;63613;28.200;112.870;2023-04-06T05:15:41;23.38;;;21.00;;
41952;SDS011;63613;28.200;112.870;2023-04-06T05:18:08;23.48;;;19.90;;
41952;SDS011;63613;28.200;112.870;2023-04-06T05:20:36;24.27;;;21.67;;
41952;SDS011;63613;28.200;112.870;2023-04-06T05:23:04;24.52;;;21.83;;
41952;SDS011;63613;28.200;112.870;2023-04-06T05:25:31;23.35;;;20.33;;
41952;SDS011;63613;28.200;112.870;2023-04-06T05:27:58;21.83;;;19.60;;
41952;SDS011;63613;28.200;112.870;2023-04-06T05:30:45;23.83;;;21.10;;
41952;SDS011;63613;28.200;112.870;2023-04-06T05:33:17;19.45;;;17.45;;
41952;SDS011;63613;28.200;112.870;2023-04-06T05:35:44;21.55;;;19.42;;
41952;SDS011;63613;28.200;112.870;2023-04-06T05:38:11;21.75;;;19.55;;
41952;SDS011;63613;28.200;112.870;2023-04-06T05:40:38;23.23;;;20.92;;
41952;SDS011;63613;28.200;112.870;2023-04-06T05:43:25;21.85;;;19.45;;
41952;SDS011;63613;28.200;112.870;2023-04-06T05:45:52;21.73;;;19.52;;
41952;SDS011;63613;28.200;112.870;2023-04-06T05:48:24;22.92;;;20.63;;
41952;SDS011;63613;28.200;112.870;2023-04-06T05:50:51;20.27;;;18.23;;
41952;SDS011;63613;28.200;112.870;2023-04-06T05:53:39;22.67;;;20.33;;
41952;SDS011;63613;28.200;112.870;2023-04-06T05:56:26;22.85;;;20.55;;
41952;SDS011;63613;28.200;112.870;2023-04-06T05:58:53;22.75;;;20.33;;
41952;SDS011;63613;28.200;112.870;2023-04-06T06:01:19;22.48;;;20.17;;
41952;SDS011;63613;28.200;112.870;2023-04-06T06:03:46;22.25;;;20.00;;
41952;SDS011;63613;28.200;112.870;2023-04-06T06:06:13;20.80;;;18.23;;
41952;SDS011;63613;28.200;112.870;2023-04-06T06:08:42;19.20;;;17.30;;
41952;SDS011;63613;28.200;112.870;2023-04-06T06:11:14;22.25;;;19.95;;
41952;SDS011;63613;28.200;112.870;2023-04-06T06:13:40;25.08;;;20.45;;
41952;SDS011;63613;28.200;112.870;2023-04-06T06:16:09;21.38;;;19.17;;
41952;SDS011;63613;28.200;112.870;2023-04-06T06:18:35;23.50;;;21.05;;
41952;SDS011;63613;28.200;112.870;2023-04-06T06:21:05;20.95;;;18.75;;
41952;SDS011;63613;28.200;112.870;2023-04-06T06:23:32;21.70;;;19.60;;
41952;SDS011;63613;28.200;112.870;2023-04-06T06:25:59;19.27;;;17.33;;
41952;SDS011;63613;28.200;112.870;2023-04-06T06:28:26;23.38;;;20.73;;
41952;SDS011;63613;28.200;112.870;2023-04-06T06:30:53;21.63;;;19.42;;
41952;SDS011;63613;28.200;112.870;2023-04-06T06:33:20;21.00;;;18.90;;
41952;SDS011;63613;28.200;112.870;2023-04-06T06:35:47;21.83;;;19.63;;
41952;SDS011;63613;28.200;112.870;2023-04-06T06:38:14;22.42;;;20.10;;
41952;SDS011;63613;28.200;112.870;2023-04-06T06:40:41;21.58;;;18.83;;
41952;SDS011;63613;28.200;112.870;2023-04-06T06:43:09;22.45;;;19.88;;
41952;SDS011;63613;28.200;112.870;2023-04-06T06:45:56;22.88;;;19.35;;
41952;SDS011;63613;28.200;112.870;2023-04-06T06:48:24;22.65;;;20.38;;
41952;SDS011;63613;28.200;112.870;2023-04-06T06:50:51;21.88;;;19.65;;
41952;SDS011;63613;28.200;112.870;2023-04-06T06:53:20;20.80;;;17.70;;
41952;SDS011;63613;28.200;112.870;2023-04-06T06:55:47;22.92;;;20.60;;
41952;SDS011;63613;28.200;112.870;2023-04-06T06:58:19;21.55;;;19.35;;
41952;SDS011;63613;28.200;112.870;2023-04-06T07:00:48;22.13;;;19.52;;
41952;SDS011;63613;28.200;112.870;2023-04-06T07:03:35;22.33;;;20.10;;
41952;SDS011;63613;28.200;112.870;2023-04-06T07:06:02;21.90;;;19.63;;
41952;SDS011;63613;28.200;112.870;2023-04-06T07:08:29;24.08;;;21.48;;
41952;SDS011;63613;28.200;112.870;2023-04-06T07:10:56;22.52;;;20.23;;
41952;SDS011;63613;28.200;112.870;2023-04-06T07:13:24;22.42;;;20.02;;
41952;SDS011;63613;28.200;112.870;2023-04-06T07:15:53;23.30;;;20.45;;
41952;SDS011;63613;28.200;112.870;2023-04-06T07:18:23;20.67;;;18.52;;
41952;SDS011;63613;28.200;112.870;2023-04-06T07:20:51;26.98;;;24.27;;
41952;SDS011;63613;28.200;112.870;2023-04-06T07:23:18;23.58;;;19.83;;
41952;SDS011;63613;28.200;112.870;2023-04-06T07:25:45;26.48;;;23.77;;
41952;SDS011;63613;28.200;112.870;2023-04-06T07:28:12;23.33;;;19.65;;
41952;SDS011;63613;28.200;112.870;2023-04-06T07:30:39;22.85;;;20.40;;
41952;SDS011;63613;28.200;112.870;2023-04-06T07:33:06;24.38;;;21.80;;
41952;SDS011;63613;28.200;112.870;2023-04-06T07:35:33;22.10;;;19.73;;
41952;SDS011;63613;28.200;112.870;2023-04-06T07:38:01;22.77;;;18.77;;
41952;SDS011;63613;28.200;112.870;2023-04-06T07:40:31;22.77;;;19.95;;
41952;SDS011;63613;28.200;112.870;2023-04-06T07:42:59;22.75;;;20.02;;
41952;SDS011;63613;28.200;112.870;2023-04-06T07:45:27;29.92;;;25.80;;
41952;SDS011;63613;28.200;112.870;2023-04-06T07:47:55;24.65;;;22.00;;
41952;SDS011;63613;28.200;112.870;2023-04-06T07:50:22;26.08;;;21.50;;
41952;SDS011;63613;28.200;112.870;2023-04-06T07:52:49;23.75;;;20.90;;
41952;SDS011;63613;28.200;112.870;2023-04-06T07:55:17;24.73;;;21.45;;
41952;SDS011;63613;28.200;112.870;2023-04-06T07:58:05;25.00;;;22.23;;
41952;SDS011;63613;28.200;112.870;2023-04-06T08:00:33;24.42;;;21.80;;
41952;SDS011;63613;28.200;112.870;2023-04-06T08:03:00;25.92;;;23.15;;
41952;SDS011;63613;28.200;112.870;2023-04-06T08:05:27;24.90;;;21.92;;
41952;SDS011;63613;28.200;112.870;2023-04-06T08:07:54;25.45;;;22.63;;
41952;SDS011;63613;28.200;112.870;2023-04-06T08:10:21;27.70;;;21.73;;
41952;SDS011;63613;28.200;112.870;2023-04-06T08:12:48;25.40;;;22.10;;
41952;SDS011;63613;28.200;112.870;2023-04-06T08:15:35;28.80;;;25.02;;
41952;SDS011;63613;28.200;112.870;2023-04-06T08:18:02;32.85;;;26.50;;
41952;SDS011;63613;28.200;112.870;2023-04-06T08:20:31;28.17;;;23.63;;
41952;SDS011;63613;28.200;112.870;2023-04-06T08:22:57;27.13;;;23.75;;
41952;SDS011;63613;28.200;112.870;2023-04-06T08:25:24;26.25;;;22.20;;
41952;SDS011;63613;28.200;112.870;2023-04-06T08:27:54;25.30;;;22.48;;
41952;SDS011;63613;28.200;112.870;2023-04-06T08:30:21;28.92;;;24.15;;
41952;SDS011;63613;28.200;112.870;2023-04-06T08:32:48;27.85;;;24.38;;
41952;SDS011;63613;28.200;112.870;2023-04-06T08:35:17;26.83;;;23.90;;
41952;SDS011;63613;28.200;112.870;2023-04-06T08:37:44;28.15;;;25.10;;
41952;SDS011;63613;28.200;112.870;2023-04-06T08:40:11;31.88;;;26.90;;
41952;SDS011;63613;28.200;112.870;2023-04-06T08:42:43;28.55;;;25.25;;
41952;SDS011;63613;28.200;112.870;2023-04-06T08:45:15;35.17;;;25.75;;
41952;SDS011;63613;28.200;112.870;2023-04-06T08:47:43;36.22;;;26.65;;
41952;SDS011;63613;28.200;112.870;2023-04-06T08:50:10;36.03;;;24.25;;
41952;SDS011;63613;28.200;112.870;2023-04-06T08:52:37;33.10;;;26.67;;
41952;SDS011;63613;28.200;112.870;2023-04-06T08:55:25;35.15;;;25.73;;
41952;SDS011;63613;28.200;112.870;2023-04-06T08:57:52;31.70;;;26.33;;
41952;SDS011;63613;28.200;112.870;2023-04-06T09:00:21;29.98;;;26.08;;
41952;SDS011;63613;28.200;112.870;2023-04-06T09:02:49;30.10;;;26.55;;
41952;SDS011;63613;28.200;112.870;2023-04-06T09:05:19;31.83;;;25.63;;
41952;SDS011;63613;28.200;112.870;2023-04-06T09:08:06;31.33;;;25.50;;
41952;SDS011;63613;28.200;112.870;2023-04-06T09:10:33;26.25;;;22.50;;
41952;SDS011;63613;28.200;112.870;2023-04-06T09:13:06;30.92;;;25.40;;
41952;SDS011;63613;28.200;112.870;2023-04-06T09:15:34;28.43;;;24.93;;
41952;SDS011;63613;28.200;112.870;2023-04-06T09:18:01;30.05;;;24.88;;
41952;SDS011;63613;28.200;112.870;2023-04-06T09:20:28;30.95;;;25.45;;
41952;SDS011;63613;28.200;112.870;2023-04-06T09:23:18;32.28;;;24.08;;
41952;SDS011;63613;28.200;112.870;2023-04-06T09:25:45;34.35;;;25.08;;
41952;SDS011;63613;28.200;112.870;2023-04-06T09:28:14;34.70;;;27.67;;
41952;SDS011;63613;28.200;112.870;2023-04-06T09:30:50;29.23;;;25.90;;
41952;SDS011;63613;28.200;112.870;2023-04-06T09:33:23;33.28;;;29.40;;
41952;SDS011;63613;28.200;112.870;2023-04-06T09:35:52;29.70;;;25.48;;
41952;SDS011;63613;28.200;112.870;2023-04-06T09:38:19;31.67;;;24.42;;
41952;SDS011;63613;28.200;112.870;2023-04-06T09:40:52;31.13;;;24.48;;
41952;SDS011;63613;28.200;112.870;2023-04-06T09:43:28;28.48;;;22.92;;
41952;SDS011;63613;28.200;112.870;2023-04-06T09:45:58;29.90;;;24.40;;
41952;SDS011;63613;28.200;112.870;2023-04-06T09:48:29;32.40;;;25.58;;
41952;SDS011;63613;28.200;112.870;2023-04-06T09:51:00;32.38;;;27.25;;
41952;SDS011;63613;28.200;112.870;2023-04-06T09:53:30;30.30;;;25.45;;
41952;SDS011;63613;28.200;112.870;2023-04-06T09:56:01;33.63;;;26.48;;
41952;SDS011;63613;28.200;112.870;2023-04-06T09:58:30;32.58;;;26.80;;
41952;SDS011;63613;28.200;112.870;2023-04-06T10:01:12;28.50;;;24.40;;
41952;SDS011;63613;28.200;112.870;2023-04-06T10:03:56;32.00;;;25.37;;
41952;SDS011;63613;28.200;112.870;2023-04-06T10:06:38;31.58;;;26.23;;
41952;SDS011;63613;28.200;112.870;2023-04-06T10:09:06;30.15;;;24.83;;
41952;SDS011;63613;28.200;112.870;2023-04-06T10:11:39;32.15;;;25.50;;
41952;SDS011;63613;28.200;112.870;2023-04-06T10:14:07;29.35;;;24.98;;
41952;SDS011;63613;28.200;112.870;2023-04-06T10:16:55;33.13;;;25.08;;
41952;SDS011;63613;28.200;112.870;2023-04-06T10:19:24;34.38;;;26.33;;
41952;SDS011;63613;28.200;112.870;2023-04-06T10:21:58;31.75;;;26.55;;
41952;SDS011;63613;28.200;112.870;2023-04-06T10:24:28;32.85;;;27.73;;
41952;SDS011;63613;28.200;112.870;2023-04-06T10:27:15;31.52;;;26.77;;
41952;SDS011;63613;28.200;112.870;2023-04-06T10:29:52;32.63;;;27.95;;
41952;SDS011;63613;28.200;112.870;2023-04-06T10:32:19;37.50;;;29.48;;
41952;SDS011;63613;28.200;112.870;2023-04-06T10:35:09;36.15;;;28.83;;
41952;SDS011;63613;28.200;112.870;2023-04-06T10:40:28;40.22;;;32.47;;
41952;SDS011;63613;28.200;112.870;2023-04-06T10:43:06;42.40;;;33.60;;
41952;SDS011;63613;28.200;112.870;2023-04-06T10:45:37;41.05;;;32.25;;
41952;SDS011;63613;28.200;112.870;2023-04-06T10:48:14;46.72;;;34.75;;
41952;SDS011;63613;28.200;112.870;2023-04-06T10:50:50;44.50;;;34.42;;
41952;SDS011;63613;28.200;112.870;2023-04-06T10:53:25;44.58;;;32.90;;
41952;SDS011;63613;28.200;112.870;2023-04-06T10:55:55;49.83;;;35.15;;
41952;SDS011;63613;28.200;112.870;2023-04-06T10:58:26;48.78;;;33.83;;
41952;SDS011;63613;28.200;112.870;2023-04-06T11:00:53;50.25;;;35.10;;
41952;SDS011;63613;28.200;112.870;2023-04-06T11:03:22;52.10;;;36.38;;
41952;SDS011;63613;28.200;112.870;2023-04-06T11:05:52;55.53;;;36.80;;
41952;SDS011;63613;28.200;112.870;2023-04-06T11:08:52;48.85;;;34.75;;
41952;SDS011;63613;28.200;112.870;2023-04-06T11:11:12;49.50;;;33.80;;
41952;SDS011;63613;28.200;112.870;2023-04-06T11:13:44;50.78;;;33.22;;
41952;SDS011;63613;28.200;112.870;2023-04-06T11:16:26;54.03;;;36.00;;
41952;SDS011;63613;28.200;112.870;2023-04-06T11:19:15;54.25;;;35.25;;
41952;SDS011;63613;28.200;112.870;2023-04-06T11:21:45;49.67;;;35.42;;
41952;SDS011;63613;28.200;112.870;2023-04-06T11:24:19;53.45;;;35.10;;
41952;SDS011;63613;28.200;112.870;2023-04-06T11:26:48;55.17;;;35.85;;
41952;SDS011;63613;28.200;112.870;2023-04-06T11:29:28;55.63;;;35.08;;
41952;SDS011;63613;28.200;112.870;2023-04-06T11:32:03;56.70;;;35.17;;
41952;SDS011;63613;28.200;112.870;2023-04-06T11:34:37;52.17;;;33.42;;
41952;SDS011;63613;28.200;112.870;2023-04-06T11:39:49;50.08;;;33.42;;
41952;SDS011;63613;28.200;112.870;2023-04-06T11:42:22;50.45;;;34.30;;
41952;SDS011;63613;28.200;112.870;2023-04-06T11:44:54;50.03;;;34.05;;
41952;SDS011;63613;28.200;112.870;2023-04-06T11:47:34;53.53;;;35.00;;
41952;SDS011;63613;28.200;112.870;2023-04-06T11:50:20;46.50;;;31.88;;
41952;SDS011;63613;28.200;112.870;2023-04-06T11:52:47;55.63;;;34.45;;
41952;SDS011;63613;28.200;112.870;2023-04-06T11:55:28;53.95;;;35.67;;
41952;SDS011;63613;28.200;112.870;2023-04-06T11:57:54;50.28;;;35.25;;
41952;SDS011;63613;28.200;112.870;2023-04-06T12:00:21;49.30;;;32.03;;
41952;SDS011;63613;28.200;112.870;2023-04-06T12:02:49;47.95;;;34.72;;
41952;SDS011;63613;28.200;112.870;2023-04-06T12:05:19;47.03;;;32.85;;
41952;SDS011;63613;28.200;112.870;2023-04-06T12:07:46;50.20;;;35.67;;
41952;SDS011;63613;28.200;112.870;2023-04-06T12:10:13;47.67;;;35.33;;
41952;SDS011;63613;28.200;112.870;2023-04-06T12:12:39;49.85;;;35.92;;
41952;SDS011;63613;28.200;112.870;2023-04-06T12:15:07;47.17;;;33.03;;
41952;SDS011;63613;28.200;112.870;2023-04-06T12:17:39;47.38;;;33.78;;
41952;SDS011;63613;28.200;112.870;2023-04-06T12:20:07;53.47;;;38.08;;
41952;SDS011;63613;28.200;112.870;2023-04-06T12:22:35;46.75;;;35.40;;
41952;SDS011;63613;28.200;112.870;2023-04-06T12:25:02;50.47;;;35.22;;
41952;SDS011;63613;28.200;112.870;2023-04-06T12:27:29;46.80;;;34.08;;
41952;SDS011;63613;28.200;112.870;2023-04-06T12:29:56;47.22;;;35.15;;
41952;SDS011;63613;28.200;112.870;2023-04-06T12:32:24;48.53;;;36.50;;
41952;SDS011;63613;28.200;112.870;2023-04-06T12:35:14;47.63;;;35.67;;
41952;SDS011;63613;28.200;112.870;2023-04-06T12:37:41;52.05;;;35.42;;
41952;SDS011;63613;28.200;112.870;2023-04-06T12:40:08;48.97;;;35.50;;
41952;SDS011;63613;28.200;112.870;2023-04-06T12:42:38;48.78;;;36.75;;
41952;SDS011;63613;28.200;112.870;2023-04-06T12:45:25;44.10;;;36.00;;
41952;SDS011;63613;28.200;112.870;2023-04-06T12:47:52;48.28;;;36.85;;
41952;SDS011;63613;28.200;112.870;2023-04-06T12:50:19;49.13;;;38.40;;
41952;SDS011;63613;28.200;112.870;2023-04-06T12:52:46;47.38;;;35.58;;
41952;SDS011;63613;28.200;112.870;2023-04-06T12:55:15;47.92;;;34.67;;
41952;SDS011;63613;28.200;112.870;2023-04-06T12:57:42;53.35;;;39.33;;
41952;SDS011;63613;28.200;112.870;2023-04-06T13:00:10;51.42;;;39.15;;
41952;SDS011;63613;28.200;112.870;2023-04-06T13:02:39;48.90;;;36.90;;
41952;SDS011;63613;28.200;112.870;2023-04-06T13:05:12;55.05;;;41.05;;
41952;SDS011;63613;28.200;112.870;2023-04-06T13:07:44;52.20;;;38.88;;
41952;SDS011;63613;28.200;112.870;2023-04-06T13:10:13;53.53;;;40.10;;
41952;SDS011;63613;28.200;112.870;2023-04-06T13:12:47;53.20;;;41.03;;
41952;SDS011;63613;28.200;112.870;2023-04-06T13:15:17;55.22;;;40.88;;
41952;SDS011;63613;28.200;112.870;2023-04-06T13:17:44;55.97;;;40.97;;
41952;SDS011;63613;28.200;112.870;2023-04-06T13:20:11;53.20;;;39.53;;
41952;SDS011;63613;28.200;112.870;2023-04-06T13:22:40;57.30;;;40.88;;
41952;SDS011;63613;28.200;112.870;2023-04-06T13:25:09;51.15;;;41.03;;
41952;SDS011;63613;28.200;112.870;2023-04-06T13:27:36;51.90;;;38.95;;
41952;SDS011;63613;28.200;112.870;2023-04-06T13:30:03;52.97;;;40.03;;
41952;SDS011;63613;28.200;112.870;2023-04-06T13:32:30;53.03;;;40.38;;
41952;SDS011;63613;28.200;112.870;2023-04-06T13:34:58;51.65;;;40.90;;
41952;SDS011;63613;28.200;112.870;2023-04-06T13:37:27;55.45;;;40.97;;
41952;SDS011;63613;28.200;112.870;2023-04-06T13:39:58;52.03;;;39.33;;
41952;SDS011;63613;28.200;112.870;2023-04-06T13:42:46;49.83;;;39.33;;
41952;SDS011;63613;28.200;112.870;2023-04-06T13:45:13;53.13;;;39.05;;
41952;SDS011;63613;28.200;112.870;2023-04-06T13:47:40;50.97;;;40.25;;
41952;SDS011;63613;28.200;112.870;2023-04-06T13:50:08;49.22;;;37.95;;
41952;SDS011;63613;28.200;112.870;2023-04-06T13:52:55;51.28;;;39.28;;
41952;SDS011;63613;28.200;112.870;2023-04-06T13:55:22;51.67;;;39.58;;
41952;SDS011;63613;28.200;112.870;2023-04-06T13:57:52;55.20;;;40.90;;
41952;SDS011;63613;28.200;112.870;2023-04-06T14:00:21;52.08;;;40.88;;
41952;SDS011;63613;28.200;112.870;2023-04-06T14:02:50;50.58;;;38.35;;
41952;SDS011;63613;28.200;112.870;2023-04-06T14:05:19;50.08;;;37.15;;
41952;SDS011;63613;28.200;112.870;2023-04-06T14:07:47;51.95;;;39.83;;
41952;SDS011;63613;28.200;112.870;2023-04-06T14:10:14;46.88;;;38.42;;
41952;SDS011;63613;28.200;112.870;2023-04-06T14:12:41;47.88;;;37.75;;
41952;SDS011;63613;28.200;112.870;2023-04-06T14:15:16;50.28;;;38.70;;
41952;SDS011;63613;28.200;112.870;2023-04-06T14:17:43;53.20;;;39.55;;
41952;SDS011;63613;28.200;112.870;2023-04-06T14:20:11;46.90;;;38.40;;
41952;SDS011;63613;28.200;112.870;2023-04-06T14:22:43;53.28;;;40.65;;